Página principal
METAR-TAF:

METAR-TAF

Aeroportos :

Nouakchott, Mauritânia

Aeroporto Internacional Nouakchott-Oumtounsy

latitude: 18-18-36N, longitude: 015-58-11W, altura: 3 m

Observação actual do tempo

O boletim foi feito há 43 minutos, às 14:30 UTC
Vento 19 kt de nordeste
Temperatura 23°C
Humidade 23%
Pressão 1015 hPa
Visibilidade: 2300 m
Poeira levantada pelo vento

METAR: GQNO 161430Z 04019KT 2300 BLDU NSC 23/01 Q1015 NOSIG

Hora: 15:13 (15:13 UTC)

Previsão

O boletim foi feito há 4 horas e 13 minutos, às 11:00 UTC
Previsão válida de 16 às 12 UTC a 17 às 18 UTC
Vento 15 kt de nordeste
Visibilidade: 3000 m
Poeira levantada pelo vento
Tornando-se
de 16 às 17 UTC a 16 às 19 UTC
Visibilidade: 7000 m

TAF: GQNO 161100Z 1612/1718 04015KT 3000 BLDU NSC BECMG 1617/1619 7000 NSW

Observações e previsões do tempo de mais de 4000 aeroportos (mensagens METAR e TAF).

As estações disponíveis são os pontos amarelos e vermelhos sobre o mapa.

Mova o rato sobre o mapa para ver o nome da estação.

Depois clique no ponto para visualizar as observações e previsões meteorológicas.

Para alterar o mapa : clique nos botões verdes com uma cruz preta para aumentar o zoom; no botão verde com uma pitada de zoom; ou nas setas verdes para mapas adjacentes.


METAR-TAF: